Latest Coastal Weather Observations for Lord Howe Island

IDN60701

Issued at 6:51 am EST Sunday 25 June 2017 (issued every 10 minutes, with the page automatically refreshed every 10 minutes)

About coastal observations | Map of coastal stations | Coastal observations for NSW | Marine services | Other Formats
Station Details ID: 200839 Name: LORD HOWE ISLAND AERO Lat: -31.54 Lon: 159.08 Height: 5.0 m
Data from the previous 72 hours. | See also: Recent months at Lord Howe Island
Date/Time
EST
Temp
°C
Wind Pressure Rain since
9am
mm
Weather Cloud Vis
km
Sea
Height
m
Swell
Dir  Spd
kts
Gust
kts
hPa Trend Height
m
Period
s
Dir
25/06:30am 11.2 SSW 1 3 1017.4 - 1.4 - - 10 - - - -
25/06:00am 12.4 CALM 0 0 1016.8 - 1.4 - - 10 - - - -
25/05:30am 13.5 CALM 0 0 1016.6 R 1.4 Fine Mostly clear 20 - - - -
25/05:00am 15.8 S 5 9 1016.4 - 1.4 - Partly cloudy 10 - - - -
25/04:30am 13.3 CALM 0 0 1016.1 - 1.4 - Partly cloudy 10 - - - -
25/04:00am 14.7 S 2 6 1016.1 - 1.4 - Partly cloudy 10 - - - -
25/03:30am 15.5 SSW 4 6 1015.9 - 1.4 - Partly cloudy 10 - - - -
25/03:00am 15.4 SSW 3 6 1015.7 - 1.4 - - 10 - - - -
25/02:30am 16.5 SSW 5 8 1015.8 - 1.4 - - 10 - - - -
25/02:00am 16.6 SW 5 9 1016.0 - 1.4 - Partly cloudy 10 - - - -
25/01:30am 16.7 SSW 6 12 1015.9 - 1.4 - Partly cloudy 10 - - - -
25/01:00am 16.9 SSW 10 15 1016.0 - 1.4 - Partly cloudy 10 - - - -
25/12:30am 17.1 SSW 9 14 1015.9 - 1.4 - Partly cloudy 10 - - - -
25/12:00am 17.4 SSW 8 15 1015.9 - 1.4 - Partly cloudy 10 - - - -
 
Date/Time
EST
Temp
°C
Wind Pressure Rain since
9am
mm
Weather Cloud Vis
km
Sea
Height
m
Swell
Dir  Spd
kts
Gust
kts
hPa Trend Height
m
Period
s
Dir
24/11:30pm 16.7 SSW 7 12 1015.7 - 1.4 - - 10 - - - -
24/11:00pm 16.8 SSW 8 13 1015.7 - 1.4 - Partly cloudy 10 - - - -
24/10:30pm 17.1 SSW 10 20 1015.9 - 1.4 - Partly cloudy 10 - - - -
24/10:00pm 17.0 SSW 11 20 1015.9 - 1.4 - Partly cloudy 10 - - - -
24/09:30pm 17.9 SSW 10 15 1015.5 - 1.4 - Partly cloudy 10 - - - -
24/09:00pm 17.9 SSW 9 16 1015.1 - 1.4 - Partly cloudy 10 - - - -
24/08:30pm 18.1 SW 10 15 1015.0 - 1.4 - Mostly clear 10 - - - -
24/08:00pm 18.2 SSW 10 15 1014.8 - 1.4 - Partly cloudy 10 - - - -
24/07:30pm 18.2 SSW 11 16 1014.6 - 1.4 - - 10 - - - -
24/07:00pm 18.2 SW 12 20 1014.2 - 1.4 - Partly cloudy 10 - - - -
24/06:30pm 18.4 SW 13 21 1013.9 - 1.4 - Partly cloudy 10 - - - -
24/06:00pm 18.5 SW 13 20 1013.4 - 1.4 - - 10 - - - -
24/05:30pm 18.4 SW 14 19 1013.0 - 1.4 - Mostly cloudy 10 - - - -
24/05:00pm 19.0 SW 15 23 1012.5 - 1.4 - Partly cloudy 10 - - - -
24/04:30pm 18.9 WSW 16 22 1012.2 - 1.4 - Partly cloudy 10 - - - -
24/04:00pm 18.9 WSW 17 27 1012.2 - 1.4 - Partly cloudy 10 - - - -
24/03:34pm 19.1 WSW 17 27 1011.9 - 1.4 - Partly cloudy 10 - - - -
24/03:30pm 19.1 SW 16 24 1011.9 - 1.4 - Partly cloudy 10 - - - -
24/03:29pm 19.1 SW 16 26 1012.0 - 1.4 - Partly cloudy 10 - - - -
24/03:00pm 19.3 WSW 18 25 1011.7 - 1.4 - Partly cloudy 10 - - - -
24/02:30pm 19.3 WSW 16 25 1011.6 R 1.4 Recent precip. Partly cloudy 20 - - - -
24/02:23pm 19.2 SW 15 25 1011.6 - 1.4 - Partly cloudy 10 - - - -
24/02:00pm 19.4 WSW 18 26 1011.5 - 1.4 - Partly cloudy 10 - - - -
24/01:30pm 19.4 WSW 18 25 1011.5 - 1.4 - Partly cloudy 10 - - - -
24/01:00pm 19.2 WSW 17 24 1011.4 - 1.4 - Partly cloudy 10 - - - -
24/12:30pm 18.6 SW 13 20 1011.7 - 1.4 - Partly cloudy 10 - - - -
24/12:24pm 18.3 SW 14 21 1011.7 - 1.4 - Partly cloudy 10 - - - -
24/12:04pm 17.3 WSW 17 23 1012.1 - 1.0 - Partly cloudy 5 - - - -
24/12:00pm 19.1 W 13 20 1012.0 - 0.4 - Partly cloudy 10 - - - -
24/11:30am 20.2 W 16 20 1012.3 - 0.0 - Cloudy 10 - - - -
24/11:00am 20.4 W 12 19 1012.7 - 0.0 - Partly cloudy 10 - - - -
24/10:30am 20.5 W 14 18 1013.2 - 0.0 - Cloudy 10 - - - -
24/10:00am 20.5 W 11 16 1013.5 - 0.0 - Cloudy 10 - - - -
24/09:30am 20.9 W 11 15 1013.8 - 0.0 - Partly cloudy 10 - - - -
24/09:00am 19.7 W 15 18 1014.2 - 0.0 - Partly cloudy 10 - - - -
24/08:30am 20.2 W 16 19 1014.3 R 0.0 Fine Partly cloudy 25 - - - -
24/08:00am 19.4 W 17 21 1014.2 - 0.0 - - 10 - - - -
24/07:30am 19.3 W 18 21 1013.9 - 0.0 - - 10 - - - -
24/07:00am 18.9 W 17 21 1013.6 - 0.0 - - 10 - - - -
24/06:30am 18.5 W 15 19 1013.5 - 0.0 - - 10 - - - -
24/06:00am 18.7 W 17 22 1013.8 - 0.0 - Partly cloudy 10 - - - -
24/05:30am 18.7 W 17 23 1013.3 F 0.0 Fine Partly cloudy 18 - - - -
24/05:00am 18.6 W 15 20 1013.2 - 0.0 - Partly cloudy 10 - - - -
24/04:30am 18.4 W 13 19 1013.4 - 0.0 - Partly cloudy 10 - - - -
24/04:00am 18.4 W 14 18 1013.5 - 0.0 - Partly cloudy 10 - - - -
24/03:30am 18.1 W 14 17 1013.6 - 0.0 - Partly cloudy 10 - - - -
24/03:00am 18.0 W 13 17 1013.6 - 0.0 - Partly cloudy 10 - - - -
24/02:30am 18.2 W 16 20 1014.3 - 0.0 - Mostly clear 10 - - - -
24/02:00am 18.1 W 15 20 1014.5 - 0.0 - Partly cloudy 10 - - - -
24/01:30am 18.0 W 15 18 1015.0 - 0.0 - Partly cloudy 10 - - - -
24/01:00am 18.0 W 15 19 1015.5 - 0.0 - Partly cloudy 10 - - - -
24/12:47am 18.0 W 15 18 1015.6 - 0.0 - Partly cloudy 10 - - - -
24/12:30am 16.9 WNW 5 8 1015.7 - 0.0 - Partly cloudy 10 - - - -
24/12:00am 16.9 WNW 5 8 1015.9 - 0.0 - Partly cloudy 10 - - - -
 
Date/Time
EST
Temp
°C
Wind Pressure Rain since
9am
mm
Weather Cloud Vis
km
Sea
Height
m
Swell
Dir  Spd
kts
Gust
kts
hPa Trend Height
m
Period
s
Dir
23/11:30pm 17.1 W 8 12 1016.3 - 0.0 - Mostly clear 10 - - - -
23/11:00pm 17.2 W 10 17 1016.6 - 0.0 - Partly cloudy 10 - - - -
23/10:30pm 17.2 W 10 14 1017.1 - 0.0 - Partly cloudy 10 - - - -
23/10:00pm 16.7 WNW 6 11 1017.3 - 0.0 - Cloudy 10 - - - -
23/09:30pm 16.1 WNW 6 11 1017.2 - 0.0 - Partly cloudy 10 - - - -
23/09:00pm 16.5 W 9 11 1017.4 - 0.0 - - 10 - - - -
23/08:30pm 16.3 W 7 11 1017.5 - 0.0 - - 10 - - - -
23/08:00pm 16.1 W 5 9 1017.3 - 0.0 - - 10 - - - -
23/07:30pm 16.1 W 6 8 1017.5 - 0.0 - - 10 - - - -
23/07:00pm 15.1 WNW 4 10 1017.8 - 0.0 - - 10 - - - -
23/06:30pm 16.2 W 7 9 1017.8 - 0.0 - - 10 - - - -
23/06:00pm 16.1 W 7 10 1017.7 - 0.0 - - 10 - - - -
23/05:30pm 15.7 SW 5 9 1017.5 - 0.0 - - 10 - - - -
23/05:00pm 16.2 WSW 7 9 1017.3 - 0.0 - - 10 - - - -
23/04:30pm 16.5 WSW 8 11 1017.5 - 0.0 - Partly cloudy 10 - - - -
23/04:00pm 16.6 WSW 9 11 1017.5 - 0.0 - Partly cloudy 10 - - - -
23/03:30pm 17.0 WSW 10 15 1017.9 - 0.0 - Partly cloudy 10 - - - -
23/03:00pm 17.4 WSW 9 14 1017.8 - 0.0 - Partly cloudy 10 - - - -
23/02:30pm 17.5 SW 9 12 1018.1 - 0.0 - Mostly clear 10 - - - -
23/02:00pm 17.8 SW 7 12 1018.1 - 0.0 - Partly cloudy 10 - - - -
23/01:30pm 17.0 WSW 8 11 1018.2 - 0.0 - Partly cloudy 10 - - - -
23/01:00pm 17.8 WSW 7 10 1018.4 - 0.0 - Partly cloudy 10 - - - -
23/12:30pm 17.8 WSW 7 11 1018.9 - 0.0 - Partly cloudy 10 - - - -
23/12:00pm 18.0 WSW 8 11 1019.1 - 0.0 - Partly cloudy 10 - - - -
23/11:30am 17.6 WSW 8 10 1019.5 - 0.0 - Mostly clear 10 - - - -
23/11:00am 17.8 WSW 7 9 1020.3 - 0.0 - Partly cloudy 10 - - - -
23/10:30am 17.3 WSW 7 10 1020.7 - 0.0 - Partly cloudy 10 - - - -
23/10:00am 16.8 SW 8 13 1021.3 - 0.0 - Cloudy 10 - - - -
23/09:30am 16.7 SW 7 11 1021.5 - 0.0 - Cloudy 10 - - - -
23/09:00am 16.8 SSW 6 10 1021.1 - 0.0 - Cloudy 10 - - - -
23/08:30am 16.7 SW 7 10 1021.1 - 0.2 - Cloudy 10 - - - -
23/08:00am 16.3 SSE 5 7 1020.9 - 0.2 - Cloudy 10 - - - -
23/07:30am 16.3 S 3 6 1020.8 - 0.2 - Cloudy 10 - - - -
23/07:00am 16.3 SE 5 9 1020.7 - 0.2 - Cloudy 10 - - - -
23/06:30am 16.5 SSW 8 11 1020.6 - 0.2 - Cloudy 10 - - - -
23/06:00am 15.8 SSW 6 9 1020.3 - 0.2 - Partly cloudy 10 - - - -
23/05:30am 16.5 SW 10 21 1020.2 - 0.2 - Mostly cloudy 10 - - - -
23/05:00am 16.6 SSW 7 10 1019.6 - 0.2 - Cloudy 10 - - - -
23/04:30am 16.8 SSW 8 13 1019.6 - 0.2 - Cloudy 10 - - - -
23/04:00am 17.0 SSW 7 13 1019.7 - 0.2 - Cloudy 10 - - - -
23/03:30am 17.2 SSW 6 16 1019.6 - 0.2 - Cloudy 10 - - - -
23/03:00am 16.9 SW 7 12 1019.6 - 0.2 - Cloudy 10 - - - -
23/02:30am 16.9 SSW 6 12 1019.9 - 0.2 - Mostly cloudy 10 - - - -
23/02:00am 16.5 SSW 6 15 1019.6 - 0.2 - Partly cloudy 10 - - - -
23/01:30am 16.7 SW 7 13 1019.9 - 0.2 - Partly cloudy 10 - - - -
23/01:00am 17.3 SSW 8 16 1020.1 - 0.2 - Cloudy 10 - - - -
23/12:30am 17.2 SW 9 19 1020.2 - 0.2 - Cloudy 10 - - - -
23/12:00am 17.3 WSW 11 19 1020.3 - 0.2 - Cloudy 10 - - - -
 
Date/Time
EST
Temp
°C
Wind Pressure Rain since
9am
mm
Weather Cloud Vis
km
Sea
Height
m
Swell
Dir  Spd
kts
Gust
kts
hPa Trend Height
m
Period
s
Dir
22/11:30pm 16.9 SSW 11 18 1020.9 - 0.2 - Mostly cloudy 10 - - - -
22/11:00pm 17.1 SSW 10 17 1021.1 - 0.2 - Cloudy 10 - - - -
22/10:30pm 17.4 SSW 11 20 1021.2 - 0.2 - Cloudy 10 - - - -
22/10:00pm 17.4 SSW 11 21 1021.1 - 0.2 - Partly cloudy 10 - - - -
22/09:30pm 17.5 S 8 17 1021.0 - 0.2 - Partly cloudy 10 - - - -
22/09:00pm 17.5 SSW 12 19 1021.3 - 0.2 - Partly cloudy 10 - - - -
22/08:30pm 17.3 SSW 11 18 1021.5 - 0.2 - Mostly clear 10 - - - -
22/08:00pm 17.2 SSW 10 15 1021.5 - 0.2 - Partly cloudy 10 - - - -
22/07:30pm 17.3 SSW 12 18 1021.3 - 0.2 - Partly cloudy 10 - - - -
22/07:00pm 17.5 SSW 12 20 1021.0 - 0.2 - Partly cloudy 10 - - - -
22/06:30pm 17.4 SSW 10 15 1020.9 - 0.2 - Partly cloudy 10 - - - -
22/06:00pm 17.4 SSW 13 24 1020.6 - 0.2 - Partly cloudy 10 - - - -
22/05:30pm 17.6 SSW 14 22 1020.3 - 0.2 - Partly cloudy 10 - - - -
22/05:00pm 17.5 SSW 14 24 1020.1 - 0.2 - Partly cloudy 10 - - - -
22/04:30pm 17.7 SSW 14 23 1019.7 - 0.2 - Partly cloudy 10 - - - -
22/04:00pm 17.8 SSW 12 21 1019.6 - 0.2 - Partly cloudy 10 - - - -
22/03:30pm 18.0 S 9 14 1019.5 - 0.2 - Partly cloudy 10 - - - -
22/03:18pm 18.2 SSW 15 30 1019.3 - 0.2 - Partly cloudy 10 - - - -
22/03:00pm 18.3 S 12 20 1019.0 - 0.2 - Partly cloudy 10 - - - -
22/02:30pm 18.8 SSW 14 24 1018.9 - 0.2 - Partly cloudy 10 - - - -
22/02:00pm 19.1 SSW 13 26 1018.8 - 0.2 - Partly cloudy 10 - - - -
22/01:30pm 19.1 SSW 13 22 1018.9 - 0.2 - Partly cloudy 10 - - - -
22/01:00pm 19.0 S 13 21 1019.0 - 0.2 - Mostly clear 10 - - - -
22/12:30pm 18.1 S 10 19 1019.3 - 0.2 Showers Mostly clear 10 - - - -
22/12:00pm 18.6 SSW 12 24 1019.4 - 0.0 - Partly cloudy 10 - - - -
22/11:30am 18.7 SSW 12 19 1019.7 - 0.0 - Mostly cloudy 10 - - - -
22/11:00am 18.0 SSE 9 15 1020.1 - 0.0 Showers Mostly clear 10 - - - -
22/10:30am 18.9 SSW 11 22 1020.3 - 0.0 - Partly cloudy 10 - - - -
22/10:00am 19.0 SSW 10 20 1020.2 - 0.0 - Mostly clear 10 - - - -
22/09:30am 18.7 SSW 13 21 1020.5 - 0.0 - Partly cloudy 10 - - - -
22/09:15am 18.5 SSW 15 29 1020.7 - 0.0 - Partly cloudy 10 - - - -
22/09:00am 18.2 SW 10 19 1020.7 - 0.0 - Mostly clear 10 - - - -
22/08:30am 16.8 SSW 10 14 1020.9 - 2.0 - Cloudy 6 - - - -
22/08:22am 17.2 SSW 12 22 1020.9 - 1.4 Showers Mostly clear 5 - - - -
22/08:00am 18.6 SSW 15 27 1020.6 - 1.2 - Partly cloudy 10 - - - -
22/07:30am 18.5 SSW 15 23 1020.3 - - - Partly cloudy 10 - - - -
22/07:00am 18.5 SSW 15 27 1019.9 - - - Partly cloudy 10 - - - -
22/06:30am 18.4 SSW 15 29 1019.4 - - - Partly cloudy 10 - - - -

Other Formats:

Comma delimited format used in spreadsheet applications
http://www.bom.gov.au/fwo/IDN60701/IDN60701.94995.axf

JavaScript Object Notation format (JSON) in row-major order
http://www.bom.gov.au/fwo/IDN60701/IDN60701.94995.json